Time;durP1;ratioP1;P1;durP2;ratioP2;P2;SDS_P1;SDS_P2;PMS_P1;PMS_P2;Temp;Humidity;BMP_temperature;BMP_pressure;BME280_temperature;BME280_humidity;BME280_pressure;Samples;Min_cycle;Max_cycle;Signal;HPM_P1;HPM_P2
2021/12/05 00:21:57;;;;;;;7.75;2.78;;;13.40;79.20;;;;;;5093376;28;20077;-71
2021/12/05 00:24:25;;;;;;;6.90;2.50;;;13.50;79.70;;;;;;5093054;28;20065;-62
2021/12/05 00:27:00;;;;;;;7.13;2.50;;;13.40;78.80;;;;;;5093332;28;20032;-71
2021/12/05 00:34:59;;;;;;;;;;;13.40;79.10;;;;;;5093577;28;20028;-71
2021/12/05 00:48:47;;;;;;;5.38;2.40;;;13.30;78.60;;;;;;5030769;28;20548;-69
2021/12/05 00:54:34;;;;;;;12.95;3.25;;;13.30;79.10;;;;;;5096385;28;20384;-62
2021/12/05 01:02:12;;;;;;;9.35;2.47;;;13.30;78.10;;;;;;5096800;28;20020;-60
2021/12/05 01:09:40;;;;;;;9.27;2.22;;;13.30;79.20;;;;;;5096838;28;20485;-69
2021/12/05 01:17:22;;;;;;;8.75;2.67;;;13.20;78.70;;;;;;5096695;28;20020;-65
2021/12/05 01:19:48;;;;;;;6.88;2.33;;;13.20;78.10;;;;;;5096439;28;20031;-70
2021/12/05 01:22:18;;;;;;;8.05;2.40;;;13.20;77.90;;;;;;5095998;28;20389;-59
2021/12/05 01:24:56;;;;;;;7.00;2.22;;;13.20;78.40;;;;;;5096402;28;20169;-60
2021/12/05 01:30:04;;;;;;;5.25;1.90;;;13.20;78.50;;;;;;5096300;28;20039;-60
2021/12/05 01:32:55;;;;;;;;;;;13.20;78.90;;;;;;5096647;28;20016;-61
2021/12/05 01:44:18;;;;;;;7.20;2.15;;;13.10;79.30;;;;;;5088015;28;20119;-70
2021/12/05 01:49:22;;;;;;;9.10;2.28;;;13.10;79.10;;;;;;5095862;28;20115;-69
2021/12/05 02:00:46;;;;;;;6.30;2.03;;;13.00;80.10;;;;;;5074064;28;20044;-64
2021/12/05 02:08:53;;;;;;;7.25;2.35;;;13.00;79.70;;;;;;5066657;28;20028;-70
2021/12/05 02:11:52;;;;;;;4.43;1.60;;;13.00;79.40;;;;;;5095283;28;20039;-70
2021/12/05 02:33:47;;;;;;;9.35;2.03;;;12.90;79.20;;;;;;5095332;28;20062;-59
2021/12/05 02:36:45;;;;;;;7.05;1.92;;;12.90;79.40;;;;;;5094521;28;20040;-69
2021/12/05 02:42:12;;;;;;;6.00;2.15;;;12.90;79.60;;;;;;5039710;28;20056;-70
2021/12/05 02:44:39;;;;;;;10.73;1.88;;;12.90;79.70;;;;;;5094822;28;20024;-70
2021/12/05 02:47:13;;;;;;;4.35;1.45;;;12.90;79.70;;;;;;5094918;28;20073;-70
2021/12/05 02:49:43;;;;;;;5.63;1.80;;;12.90;79.50;;;;;;5094940;28;20094;-66
2021/12/05 02:52:14;;;;;;;6.40;1.85;;;12.90;79.70;;;;;;5095604;28;20026;-68
2021/12/05 02:54:49;;;;;;;6.60;2.00;;;12.90;80.00;;;;;;5095252;28;20027;-62
2021/12/05 02:57:15;;;;;;;5.03;1.67;;;12.90;79.90;;;;;;5094499;28;20041;-67
2021/12/05 02:59:52;;;;;;;6.85;1.95;;;12.90;80.00;;;;;;5094752;28;20020;-64
2021/12/05 03:02:25;;;;;;;6.22;1.55;;;12.90;79.50;;;;;;5094041;28;20488;-63
2021/12/05 03:04:53;;;;;;;6.30;1.63;;;12.90;80.20;;;;;;5094711;28;20065;-69
2021/12/05 03:07:26;;;;;;;5.68;1.50;;;12.80;79.90;;;;;;5094390;28;20028;-60
2021/12/05 03:09:51;;;;;;;4.03;1.40;;;12.90;80.20;;;;;;5094561;28;20017;-61
2021/12/05 03:12:18;;;;;;;5.40;1.48;;;12.90;80.20;;;;;;5092655;28;20039;-60
2021/12/05 03:14:49;;;;;;;5.65;1.63;;;12.90;79.90;;;;;;5094336;28;20032;-63
2021/12/05 03:17:15;;;;;;;5.00;1.30;;;12.90;79.80;;;;;;5093854;28;20016;-62
2021/12/05 03:19:41;;;;;;;5.22;1.70;;;12.90;80.10;;;;;;5094321;28;20024;-66
2021/12/05 03:22:07;;;;;;;3.88;1.65;;;12.90;80.20;;;;;;5094139;28;20024;-65
2021/12/05 03:24:34;;;;;;;3.97;1.80;;;12.90;80.00;;;;;;5094319;28;20047;-67
2021/12/05 03:27:00;;;;;;;4.72;1.52;;;12.90;80.20;;;;;;5092603;28;20024;-61
2021/12/05 03:29:26;;;;;;;4.10;1.30;;;13.00;80.30;;;;;;5094180;28;20537;-62
2021/12/05 03:31:52;;;;;;;4.35;1.20;;;12.90;80.10;;;;;;5093701;28;20059;-61
2021/12/05 03:34:20;;;;;;;5.00;1.25;;;12.90;80.00;;;;;;5094107;28;20020;-69
2021/12/05 03:36:49;;;;;;;4.85;1.55;;;12.90;79.80;;;;;;5093891;28;20093;-61
2021/12/05 03:39:15;;;;;;;5.10;1.15;;;12.90;79.90;;;;;;5093817;28;20505;-59
2021/12/05 03:41:42;;;;;;;5.85;1.77;;;12.80;80.00;;;;;;5093749;28;20522;-59
2021/12/05 03:44:11;;;;;;;5.55;1.30;;;12.90;80.10;;;;;;5093625;28;20082;-64
2021/12/05 03:46:37;;;;;;;4.30;1.42;;;12.80;79.80;;;;;;5092108;28;20389;-68
2021/12/05 03:49:10;;;;;;;3.60;1.73;;;12.80;79.80;;;;;;5093686;28;20557;-70
2021/12/05 03:51:44;;;;;;;4.38;1.27;;;12.80;80.20;;;;;;5093741;28;20107;-65
2021/12/05 03:54:11;;;;;;;3.75;1.17;;;12.70;80.40;;;;;;5093565;28;20477;-71
2021/12/05 03:56:37;;;;;;;3.88;1.25;;;12.80;80.30;;;;;;5093606;28;20028;-71
2021/12/05 03:59:05;;;;;;;4.63;1.25;;;12.80;80.40;;;;;;5090115;28;20154;-70
2021/12/05 04:01:31;;;;;;;4.90;1.40;;;12.80;80.40;;;;;;5074755;28;20286;-63
2021/12/05 04:03:57;;;;;;;2.78;1.17;;;12.80;80.20;;;;;;5071325;28;20481;-70
2021/12/05 04:06:26;;;;;;;3.17;1.13;;;12.70;79.90;;;;;;5070863;28;20025;-68
2021/12/05 04:08:52;;;;;;;2.63;0.80;;;12.70;80.30;;;;;;5072829;28;20478;-70
2021/12/05 04:11:25;;;;;;;5.80;1.27;;;12.70;80.20;;;;;;5088926;28;20024;-70
2021/12/05 04:13:51;;;;;;;4.15;1.15;;;12.70;80.10;;;;;;5073587;28;20033;-69
2021/12/05 04:16:16;;;;;;;3.13;1.15;;;12.70;80.40;;;;;;5073959;28;20027;-60
2021/12/05 04:18:45;;;;;;;3.50;1.13;;;12.60;80.20;;;;;;5073459;28;20062;-60
2021/12/05 04:21:11;;;;;;;5.07;1.08;;;12.60;80.30;;;;;;5073145;28;20025;-64
2021/12/05 04:23:37;;;;;;;6.13;1.90;;;12.60;80.30;;;;;;5072882;28;20113;-61
2021/12/05 04:26:03;;;;;;;3.30;1.35;;;12.60;80.50;;;;;;5073144;28;20040;-61
2021/12/05 04:28:30;;;;;;;4.15;1.13;;;12.50;80.60;;;;;;5072358;28;20099;-64
2021/12/05 04:30:55;;;;;;;4.13;1.23;;;12.50;80.90;;;;;;5072520;28;20051;-59
2021/12/05 04:33:21;;;;;;;3.42;1.27;;;12.50;80.90;;;;;;5072698;28;20017;-59
2021/12/05 04:35:47;;;;;;;4.57;1.20;;;12.50;80.60;;;;;;5072870;28;20092;-59
2021/12/05 04:38:13;;;;;;;5.53;1.15;;;12.40;80.60;;;;;;5072780;28;20033;-67
2021/12/05 04:40:40;;;;;;;3.72;1.23;;;12.40;80.90;;;;;;5073189;28;20070;-68
2021/12/05 04:43:05;;;;;;;2.25;0.90;;;12.50;81.40;;;;;;5072900;28;20128;-68
2021/12/05 04:45:33;;;;;;;4.65;1.05;;;12.50;81.20;;;;;;5072403;28;20040;-66
2021/12/05 04:48:03;;;;;;;2.72;0.80;;;12.50;81.30;;;;;;5072912;28;20016;-67
2021/12/05 04:50:29;;;;;;;3.83;0.68;;;12.60;81.30;;;;;;5072787;28;20073;-68
2021/12/05 04:52:56;;;;;;;2.80;1.05;;;12.60;81.10;;;;;;5071199;28;20441;-69
2021/12/05 04:55:23;;;;;;;3.00;0.95;;;12.60;81.10;;;;;;5072713;28;20485;-68
2021/12/05 04:57:48;;;;;;;4.22;1.08;;;12.60;81.20;;;;;;5072329;28;20023;-69
2021/12/05 05:00:28;;;;;;;2.70;1.05;;;12.60;81.10;;;;;;5072552;28;20021;-66
2021/12/05 05:02:56;;;;;;;3.20;0.90;;;12.60;80.90;;;;;;5072465;28;20035;-68
2021/12/05 05:05:24;;;;;;;4.25;1.08;;;12.50;81.00;;;;;;5072633;28;20032;-64
2021/12/05 05:07:50;;;;;;;2.88;0.70;;;12.40;80.80;;;;;;5072636;28;20016;-66
2021/12/05 05:10:28;;;;;;;2.67;1.40;;;12.40;81.00;;;;;;5072447;28;20039;-69
2021/12/05 05:12:55;;;;;;;3.28;1.00;;;12.40;81.10;;;;;;5072044;28;20025;-66
2021/12/05 05:15:25;;;;;;;5.07;1.30;;;12.40;81.50;;;;;;5072493;28;20057;-68
2021/12/05 05:17:52;;;;;;;3.53;0.98;;;12.40;81.30;;;;;;5072527;28;20025;-66
2021/12/05 05:20:26;;;;;;;3.10;1.13;;;12.30;81.40;;;;;;5072611;28;20021;-67
2021/12/05 05:47:15;;;;;;;3.87;1.10;;;12.00;82.10;;;;;;5076118;28;20461;-63
2021/12/05 05:49:59;;;;;;;3.75;0.70;;;12.10;82.60;;;;;;5078059;28;20016;-68
2021/12/05 05:52:26;;;;;;;2.85;1.00;;;12.10;82.50;;;;;;5082857;28;20095;-68
2021/12/05 05:54:54;;;;;;;2.58;0.90;;;12.10;82.60;;;;;;5087607;28;20028;-67
2021/12/05 06:00:31;;;;;;;3.40;1.02;;;12.00;82.60;;;;;;5051089;28;20036;-62
2021/12/05 06:05:42;;;;;;;2.10;0.80;;;12.00;82.70;;;;;;5092704;28;20117;-64
2021/12/05 06:08:08;;;;;;;2.10;0.70;;;11.90;83.00;;;;;;5092488;28;20412;-58
2021/12/05 06:10:33;;;;;;;2.22;1.00;;;11.90;83.10;;;;;;5095042;28;20028;-65
2021/12/05 06:12:59;;;;;;;3.63;1.42;;;11.80;83.40;;;;;;5094679;28;20028;-63
2021/12/05 06:15:26;;;;;;;3.92;1.40;;;11.80;83.00;;;;;;5094990;28;20028;-63
2021/12/05 06:17:53;;;;;;;6.90;1.80;;;11.80;83.10;;;;;;5095446;28;20031;-63
2021/12/05 06:20:22;;;;;;;6.38;2.38;;;11.80;83.20;;;;;;5095002;28;20028;-68
2021/12/05 06:22:48;;;;;;;3.88;1.70;;;11.80;83.20;;;;;;5095445;28;20024;-68
2021/12/05 06:25:20;;;;;;;4.93;1.85;;;11.80;84.20;;;;;;5094989;28;20170;-68
2021/12/05 06:27:47;;;;;;;;;;;11.70;83.50;;;;;;5095824;28;20024;-69
2021/12/05 06:30:18;;;;;;;2.58;1.33;;;11.70;83.40;;;;;;5093782;28;19954;-68
2021/12/05 06:46:30;;;;;;;2.28;0.88;;;11.70;84.20;;;;;;5095009;28;20040;-69
2021/12/05 06:48:56;;;;;;;2.15;0.80;;;11.80;84.40;;;;;;5094849;28;20028;-68
2021/12/05 06:51:28;;;;;;;2.63;0.82;;;11.60;84.00;;;;;;5094331;28;20028;-68
2021/12/05 06:53:55;;;;;;;4.25;0.90;;;11.70;84.70;;;;;;5085257;28;20028;-68
2021/12/05 06:56:21;;;;;;;2.30;0.60;;;11.90;85.00;;;;;;5074207;28;20104;-68
2021/12/05 06:58:47;;;;;;;3.50;0.73;;;12.00;85.30;;;;;;5078179;28;20107;-68
2021/12/05 07:01:14;;;;;;;2.50;0.52;;;12.10;85.40;;;;;;5087995;28;20028;-69
2021/12/05 07:03:43;;;;;;;3.88;0.65;;;12.10;85.20;;;;;;5094256;28;20028;-69
2021/12/05 07:06:11;;;;;;;3.03;0.68;;;12.10;85.30;;;;;;5094187;28;20028;-68
2021/12/05 07:08:40;;;;;;;6.72;0.80;;;12.20;86.00;;;;;;5093946;28;20061;-69
2021/12/05 07:11:21;;;;;;;1.60;0.55;;;12.30;86.40;;;;;;5092815;28;20542;-69
2021/12/05 07:16:45;;;;;;;1.85;0.80;;;12.20;86.40;;;;;;5094345;28;20404;-63
2021/12/05 07:19:58;;;;;;;4.65;0.60;;;12.20;85.60;;;;;;5094513;28;20035;-71
2021/12/05 07:21:57;;;;;;;2.30;0.75;;;12.30;87.40;;;;;;5083116;28;20115;-70
2021/12/05 07:43:00;;;;;;;1.13;0.40;;;12.70;83.90;;;;;;5089246;28;20032;-70
2021/12/05 07:45:39;;;;;;;2.22;0.43;;;12.70;83.60;;;;;;5084460;28;20036;-70
2021/12/05 07:48:12;;;;;;;3.35;0.68;;;12.80;83.70;;;;;;5092976;28;20280;-69
2021/12/05 07:50:49;;;;;;;2.53;0.55;;;12.60;81.50;;;;;;5093325;28;20073;-70
2021/12/05 07:53:23;;;;;;;2.58;0.70;;;12.50;81.10;;;;;;5074445;28;20046;-70
2021/12/05 07:55:53;;;;;;;3.13;0.45;;;12.50;82.00;;;;;;5073346;28;20021;-71
2021/12/05 08:14:57;;;;;;;1.63;0.65;;;12.10;82.90;;;;;;5086298;28;20389;-59
2021/12/05 08:17:23;;;;;;;1.55;0.88;;;12.10;83.80;;;;;;5072859;28;20070;-61
2021/12/05 08:19:48;;;;;;;2.78;0.60;;;12.10;83.40;;;;;;5072993;28;20013;-61
2021/12/05 08:22:15;;;;;;;2.05;0.75;;;12.10;84.10;;;;;;5074347;28;20480;-60
2021/12/05 08:24:42;;;;;;;4.25;0.40;;;12.10;84.20;;;;;;5071672;28;20028;-60
2021/12/05 08:27:12;;;;;;;2.92;0.50;;;12.10;84.40;;;;;;5072264;28;20063;-61
2021/12/05 08:30:15;;;;;;;3.22;0.65;;;12.20;84.60;;;;;;5073154;28;20020;-62
2021/12/05 08:38:49;;;;;;;4.10;0.90;;;12.10;83.40;;;;;;5090580;28;20031;-60
2021/12/05 08:43:37;;;;;;;4.00;0.68;;;12.20;84.70;;;;;;5090090;28;20071;-66
2021/12/05 09:22:11;;;;;;;4.72;1.50;;;12.10;82.80;;;;;;5076308;28;20511;-68
2021/12/05 09:24:42;;;;;;;3.90;1.60;;;12.10;84.10;;;;;;5093939;28;20055;-65
2021/12/05 10:19:11;;;;;;;2.47;1.50;;;12.10;83.80;;;;;;5087614;28;20036;-67
2021/12/05 10:35:58;;;;;;;3.80;1.70;;;12.20;84.10;;;;;;5078123;28;20292;-64
2021/12/05 10:38:32;;;;;;;3.05;1.60;;;12.30;84.10;;;;;;5083806;28;20016;-66
2021/12/05 10:41:46;;;;;;;2.33;1.48;;;12.40;85.80;;;;;;5084861;28;20048;-66
2021/12/05 10:43:53;;;;;;;3.78;1.10;;;12.40;85.50;;;;;;5084949;28;20044;-64
2021/12/05 10:46:21;;;;;;;3.28;1.67;;;12.60;86.50;;;;;;5069970;28;20032;-66
2021/12/05 10:49:02;;;;;;;5.45;2.17;;;12.50;84.90;;;;;;5090646;28;20031;-63
2021/12/05 10:51:32;;;;;;;3.30;1.35;;;12.70;85.60;;;;;;5090951;28;20032;-66
2021/12/05 10:53:58;;;;;;;5.25;1.63;;;12.70;85.20;;;;;;5086793;28;20055;-64
2021/12/05 10:56:33;;;;;;;2.63;1.95;;;12.70;85.10;;;;;;5086493;28;20060;-64
2021/12/05 10:59:02;;;;;;;2.47;1.80;;;12.70;84.60;;;;;;5074384;28;20111;-66
2021/12/05 11:01:27;;;;;;;3.80;1.63;;;12.80;85.00;;;;;;5083571;28;20492;-65
2021/12/05 11:04:03;;;;;;;2.55;1.60;;;12.70;83.70;;;;;;5076918;28;20074;-63
2021/12/05 11:06:44;;;;;;;1.95;1.65;;;12.70;83.60;;;;;;5083340;28;20070;-66
2021/12/05 11:09:16;;;;;;;3.58;2.67;;;12.70;83.80;;;;;;5078361;28;20038;-61
2021/12/05 11:11:45;;;;;;;4.70;2.33;;;12.70;83.50;;;;;;5080081;28;20379;-61
2021/12/05 11:14:18;;;;;;;4.88;2.78;;;12.70;84.90;;;;;;5076993;28;20029;-61
2021/12/05 11:16:49;;;;;;;4.00;2.90;;;12.70;84.10;;;;;;5080595;28;20024;-64
2021/12/05 11:19:23;;;;;;;3.53;3.20;;;12.70;84.20;;;;;;5085186;28;20024;-64
2021/12/05 11:21:56;;;;;;;4.80;3.60;;;12.70;82.70;;;;;;5088317;28;20480;-64
2021/12/05 11:24:31;;;;;;;4.13;2.95;;;12.60;82.00;;;;;;5075571;28;20028;-66
2021/12/05 11:27:43;;;;;;;5.10;3.38;;;12.50;81.40;;;;;;5079292;28;20109;-65
2021/12/05 11:30:18;;;;;;;4.47;3.90;;;12.50;80.40;;;;;;5081612;28;20045;-61
2021/12/05 11:32:57;;;;;;;6.28;5.35;;;12.40;80.90;;;;;;5084659;28;20035;-63
2021/12/05 11:35:30;;;;;;;5.82;4.43;;;12.40;81.60;;;;;;5073890;28;20111;-61
2021/12/05 11:38:07;;;;;;;4.90;4.50;;;12.30;81.20;;;;;;5073213;28;20390;-62
2021/12/05 11:41:02;;;;;;;5.72;5.22;;;12.30;80.90;;;;;;5072936;28;20053;-60
2021/12/05 11:43:46;;;;;;;5.68;5.18;;;12.20;81.10;;;;;;5085446;28;20122;-61
2021/12/05 11:46:11;;;;;;;5.45;4.95;;;12.10;80.80;;;;;;5081846;28;20093;-61
2021/12/05 11:48:40;;;;;;;6.32;5.50;;;12.10;81.00;;;;;;5075261;28;20095;-61
2021/12/05 11:51:31;;;;;;;6.40;5.65;;;12.10;81.00;;;;;;5088840;28;20016;-65
2021/12/05 11:54:08;;;;;;;8.02;6.97;;;12.10;81.00;;;;;;5088869;28;20024;-66
2021/12/05 11:56:34;;;;;;;9.82;7.70;;;12.00;80.80;;;;;;5070427;28;20024;-66
2021/12/05 11:59:08;;;;;;;8.90;6.95;;;12.00;81.10;;;;;;5072710;28;20032;-68
2021/12/05 12:01:37;;;;;;;16.23;9.45;;;12.10;81.60;;;;;;5089872;28;20059;-66
2021/12/05 12:04:05;;;;;;;14.35;9.15;;;12.00;81.90;;;;;;5088259;28;20373;-67
2021/12/05 12:06:31;;;;;;;14.65;8.90;;;12.00;82.30;;;;;;5072639;28;20082;-64
2021/12/05 12:08:56;;;;;;;11.15;7.70;;;12.00;84.70;;;;;;5073183;28;20021;-67
2021/12/05 12:11:24;;;;;;;8.35;6.72;;;12.00;82.50;;;;;;5071883;28;20359;-67
2021/12/05 12:13:51;;;;;;;6.47;5.72;;;11.90;82.50;;;;;;5072239;28;20433;-66
2021/12/05 12:16:18;;;;;;;5.28;4.78;;;12.10;82.10;;;;;;5074997;28;20132;-67
2021/12/05 12:18:47;;;;;;;5.68;4.95;;;12.10;81.80;;;;;;5087188;28;20107;-65
2021/12/05 12:21:19;;;;;;;5.68;5.18;;;12.00;81.80;;;;;;5076271;28;20097;-60
2021/12/05 12:23:49;;;;;;;6.95;6.25;;;12.00;82.30;;;;;;5077404;28;20036;-65
2021/12/05 12:26:15;;;;;;;5.90;5.10;;;11.90;83.00;;;;;;5072850;28;20067;-64
2021/12/05 12:28:41;;;;;;;4.97;4.57;;;11.90;83.80;;;;;;5077007;28;20381;-62
2021/12/05 12:31:25;;;;;;;5.43;4.65;;;11.90;84.30;;;;;;5082155;28;20481;-67
2021/12/05 12:34:09;;;;;;;6.22;3.80;;;11.90;84.30;;;;;;5072899;28;20021;-64
2021/12/05 12:36:37;;;;;;;6.97;3.58;;;11.90;85.60;;;;;;5075928;28;20489;-59
2021/12/05 12:39:18;;;;;;;4.03;2.75;;;12.10;87.80;;;;;;5070225;28;20066;-60
2021/12/05 12:42:12;;;;;;;6.27;4.40;;;12.20;87.60;;;;;;5070888;28;20078;-61
2021/12/05 12:45:28;;;;;;;6.50;5.90;;;12.20;85.20;;;;;;5072214;28;20082;-63
2021/12/05 12:48:02;;;;;;;6.53;5.93;;;12.20;84.90;;;;;;5034078;28;20067;-65
2021/12/05 12:50:51;;;;;;;7.63;5.05;;;12.30;84.60;;;;;;5078465;28;20032;-64
2021/12/05 12:53:37;;;;;;;7.00;5.88;;;12.30;83.00;;;;;;5076832;28;20507;-66
2021/12/05 12:56:19;;;;;;;7.20;5.85;;;12.20;82.60;;;;;;5074121;28;20028;-61
2021/12/05 12:58:54;;;;;;;5.25;4.80;;;12.20;82.60;;;;;;5077532;28;20028;-61
2021/12/05 13:12:33;;;;;;;4.43;3.30;;;12.20;83.00;;;;;;5080009;28;20491;-64
2021/12/05 13:15:23;;;;;;;4.28;3.55;;;12.20;83.80;;;;;;5087260;28;20032;-64
2021/12/05 13:18:01;;;;;;;3.15;2.30;;;12.30;84.10;;;;;;5073582;28;20035;-64
2021/12/05 13:20:29;;;;;;;4.53;3.97;;;12.40;85.30;;;;;;5075183;28;20090;-61
2021/12/05 13:22:57;;;;;;;6.47;3.00;;;12.50;85.50;;;;;;5083436;28;20055;-64
2021/12/05 13:25:23;;;;;;;5.70;3.90;;;12.50;85.20;;;;;;5083913;28;20043;-64
2021/12/05 13:27:48;;;;;;;3.45;3.15;;;12.40;84.30;;;;;;5086375;28;20020;-63
2021/12/05 13:30:29;;;;;;;3.97;2.15;;;12.40;83.60;;;;;;5082506;28;20064;-64
2021/12/05 13:33:17;;;;;;;5.30;3.60;;;12.60;85.00;;;;;;5074828;28;20024;-64
2021/12/05 13:35:43;;;;;;;4.00;3.60;;;12.50;83.70;;;;;;5073994;28;20063;-64
2021/12/05 13:38:30;;;;;;;4.43;2.97;;;12.50;83.80;;;;;;5072294;28;20048;-63
2021/12/05 13:41:13;;;;;;;3.90;3.60;;;12.50;83.40;;;;;;5088825;28;20058;-64
2021/12/05 13:43:40;;;;;;;4.18;3.78;;;12.60;82.90;;;;;;5092783;28;20020;-64
2021/12/05 13:46:33;;;;;;;5.18;4.68;;;12.50;82.70;;;;;;5078770;28;20035;-64
2021/12/05 13:49:23;;;;;;;4.43;3.95;;;12.50;80.80;;;;;;5074354;28;20027;-64
2021/12/05 13:51:48;;;;;;;5.72;4.85;;;12.50;80.80;;;;;;5086751;28;20039;-64
2021/12/05 13:54:25;;;;;;;4.45;4.15;;;12.40;80.20;;;;;;5080194;28;20024;-63
2021/12/05 13:57:07;;;;;;;7.13;4.57;;;12.40;80.10;;;;;;5079527;28;20024;-60
2021/12/05 13:59:33;;;;;;;5.70;5.15;;;12.40;81.10;;;;;;5081663;28;20059;-60
2021/12/05 14:01:58;;;;;;;8.85;5.60;;;12.40;80.30;;;;;;5082898;28;20133;-60
2021/12/05 14:04:27;;;;;;;5.80;5.30;;;12.40;80.10;;;;;;5087776;28;20619;-60
2021/12/05 14:07:04;;;;;;;6.38;5.72;;;12.40;79.60;;;;;;5073610;28;20032;-59
2021/12/05 14:09:29;;;;;;;6.68;6.07;;;12.30;80.10;;;;;;5087194;28;20365;-59
2021/12/05 14:12:07;;;;;;;11.93;9.40;;;12.30;80.70;;;;;;5093138;28;20495;-61
2021/12/05 14:14:35;;;;;;;10.52;8.80;;;12.20;80.70;;;;;;5082891;28;20119;-60
2021/12/05 14:17:15;;;;;;;11.95;8.85;;;12.20;81.50;;;;;;5087241;28;20019;-61
2021/12/05 14:19:44;;;;;;;14.23;9.70;;;12.20;81.30;;;;;;5093442;28;20054;-61
2021/12/05 14:22:12;;;;;;;13.73;9.40;;;12.20;80.70;;;;;;5093339;28;20024;-61
2021/12/05 14:24:44;;;;;;;12.13;9.38;;;12.20;80.60;;;;;;5094254;28;20052;-59
2021/12/05 14:27:14;;;;;;;9.05;8.10;;;12.20;80.70;;;;;;5084940;28;20404;-63
2021/12/05 14:29:41;;;;;;;9.02;7.47;;;12.20;81.00;;;;;;5083787;28;20032;-60
2021/12/05 14:32:27;;;;;;;9.20;7.82;;;12.10;81.10;;;;;;5074735;28;20035;-61
2021/12/05 14:34:59;;;;;;;8.38;7.65;;;12.20;81.90;;;;;;5076179;28;20123;-61
2021/12/05 14:37:27;;;;;;;11.07;8.52;;;12.20;82.30;;;;;;5084861;28;20552;-65
2021/12/05 14:39:59;;;;;;;11.35;8.73;;;12.20;82.10;;;;;;5078956;28;20024;-63
2021/12/05 14:42:27;;;;;;;10.03;8.03;;;12.20;82.20;;;;;;5087620;28;20016;-63
2021/12/05 14:44:57;;;;;;;9.73;8.07;;;12.20;82.90;;;;;;5084470;28;20485;-62
2021/12/05 14:47:26;;;;;;;9.52;8.63;;;12.30;83.40;;;;;;5076043;28;20025;-63
2021/12/05 14:49:57;;;;;;;12.07;9.57;;;12.30;83.60;;;;;;5083429;28;20146;-67
2021/12/05 14:52:31;;;;;;;14.25;10.88;;;12.20;83.20;;;;;;5074800;28;20115;-63
2021/12/05 14:54:59;;;;;;;10.15;9.25;;;12.30;81.60;;;;;;5091651;28;20046;-65
2021/12/05 14:57:29;;;;;;;11.35;9.95;;;12.20;82.70;;;;;;5088065;28;20473;-68
2021/12/05 15:00:15;;;;;;;11.18;9.82;;;12.20;82.50;;;;;;5089747;28;20031;-62
2021/12/05 15:02:41;;;;;;;14.23;11.80;;;12.20;83.20;;;;;;5085652;28;20033;-63
2021/12/05 15:05:12;;;;;;;11.95;10.65;;;12.20;82.70;;;;;;5080280;28;20036;-61
2021/12/05 15:07:38;;;;;;;12.98;11.57;;;12.20;83.40;;;;;;5071128;28;20020;-65
2021/12/05 15:10:05;;;;;;;13.15;11.75;;;12.20;83.50;;;;;;5068680;28;20705;-63
2021/12/05 15:12:34;;;;;;;13.48;11.65;;;12.10;83.40;;;;;;5084391;28;20508;-64
2021/12/05 15:15:06;;;;;;;15.15;13.15;;;12.10;83.20;;;;;;5087345;28;20112;-64
2021/12/05 15:17:33;;;;;;;;;;;12.10;83.80;;;;;;5090225;28;20469;-65
2021/12/05 15:20:07;;;;;;;12.63;10.43;;;12.10;83.90;;;;;;5074471;28;19912;-62
2021/12/05 15:22:33;;;;;;;16.40;12.18;;;12.20;85.70;;;;;;5055654;28;20032;-65
2021/12/05 15:25:03;;;;;;;13.20;11.90;;;12.20;84.10;;;;;;5068775;28;20035;-64
2021/12/05 15:27:31;;;;;;;13.27;11.93;;;12.10;83.90;;;;;;5062510;28;20146;-63
2021/12/05 15:30:14;;;;;;;12.50;11.30;;;12.00;82.60;;;;;;5046969;28;20032;-66
2021/12/05 15:32:40;;;;;;;14.23;12.77;;;12.00;82.20;;;;;;5061379;28;20073;-64
2021/12/05 15:35:13;;;;;;;14.13;12.65;;;11.90;82.30;;;;;;5076219;28;20465;-65
2021/12/05 15:38:11;;;;;;;12.32;11.00;;;11.90;82.20;;;;;;5054750;28;20088;-66
2021/12/05 15:40:45;;;;;;;11.70;10.57;;;11.90;82.00;;;;;;5068420;28;20055;-66
2021/12/05 15:43:16;;;;;;;10.93;9.07;;;11.80;82.20;;;;;;5085643;28;20024;-66
2021/12/05 15:45:45;;;;;;;11.13;10.07;;;11.80;82.20;;;;;;5080166;28;20556;-66
2021/12/05 15:48:11;;;;;;;10.57;9.57;;;11.80;82.70;;;;;;5080916;28;20066;-67
2021/12/05 15:50:39;;;;;;;11.95;10.23;;;11.80;83.50;;;;;;5077671;28;20476;-67
2021/12/05 15:53:10;;;;;;;11.65;10.60;;;11.80;84.10;;;;;;5085511;28;20020;-60
2021/12/05 15:55:39;;;;;;;13.38;12.18;;;11.90;84.30;;;;;;5077651;28;20024;-66
2021/12/05 15:58:18;;;;;;;13.60;12.30;;;11.90;84.40;;;;;;5078405;28;20024;-63
2021/12/05 16:00:49;;;;;;;14.05;12.77;;;11.90;84.50;;;;;;5088368;28;20027;-64
2021/12/05 16:03:24;;;;;;;16.52;13.00;;;12.00;84.40;;;;;;5105003;28;20052;-67
2021/12/05 16:06:00;;;;;;;15.27;13.40;;;11.90;84.50;;;;;;5104987;28;20092;-64
2021/12/05 16:08:31;;;;;;;18.17;13.93;;;11.90;84.60;;;;;;5086840;28;20263;-66
2021/12/05 16:10:59;;;;;;;17.25;15.45;;;12.00;84.60;;;;;;5077358;28;20024;-64
2021/12/05 16:13:30;;;;;;;19.25;17.30;;;12.00;84.60;;;;;;5082686;28;20039;-64
2021/12/05 16:16:15;;;;;;;17.83;15.90;;;12.00;84.20;;;;;;5082218;28;20390;-65
2021/12/05 16:18:44;;;;;;;16.75;14.85;;;12.00;84.10;;;;;;5092199;28;20031;-65
2021/12/05 16:21:28;;;;;;;16.35;14.82;;;12.00;83.70;;;;;;5074244;28;20032;-67
2021/12/05 16:23:56;;;;;;;14.50;12.93;;;12.00;83.70;;;;;;5085054;28;20501;-66
2021/12/05 16:26:27;;;;;;;16.05;11.80;;;12.10;84.70;;;;;;5089692;28;20114;-67
2021/12/05 16:28:56;;;;;;;13.23;11.82;;;12.10;86.40;;;;;;5078708;28;20031;-66
2021/12/05 16:31:33;;;;;;;13.63;12.15;;;12.30;85.70;;;;;;5076891;28;20442;-66
2021/12/05 16:34:02;;;;;;;15.65;13.40;;;12.40;85.40;;;;;;5074839;28;20028;-63
2021/12/05 16:36:34;;;;;;;17.75;10.90;;;12.50;85.30;;;;;;5078868;28;20487;-62
2021/12/05 16:39:18;;;;;;;10.57;9.23;;;12.50;84.20;;;;;;5089053;28;20062;-62
2021/12/05 16:41:51;;;;;;;17.30;14.32;;;12.50;84.10;;;;;;5087590;28;20060;-63
2021/12/05 16:44:20;;;;;;;17.83;15.60;;;12.50;81.30;;;;;;5091272;28;20408;-66
2021/12/05 16:46:51;;;;;;;18.77;16.88;;;12.40;81.30;;;;;;5070419;28;20029;-66
2021/12/05 16:49:26;;;;;;;22.95;19.35;;;12.30;80.80;;;;;;5083544;28;20028;-65
2021/12/05 16:52:01;;;;;;;19.45;17.08;;;12.20;81.00;;;;;;5067365;28;20028;-61
2021/12/05 16:54:31;;;;;;;20.42;17.65;;;12.20;81.00;;;;;;5080944;28;20057;-66
2021/12/05 16:57:10;;;;;;;19.30;15.93;;;12.10;81.00;;;;;;5073524;28;20115;-65
2021/12/05 16:59:48;;;;;;;20.15;15.70;;;12.10;81.20;;;;;;5090601;28;20020;-66
2021/12/05 17:02:27;;;;;;;18.33;14.60;;;12.10;81.30;;;;;;5076378;28;20034;-64
2021/12/05 17:05:17;;;;;;;15.70;14.02;;;12.10;81.90;;;;;;5084762;28;20054;-63
2021/12/05 17:08:02;;;;;;;13.40;12.05;;;12.10;82.70;;;;;;5091349;28;20028;-65
2021/12/05 17:10:29;;;;;;;15.93;13.82;;;12.20;83.20;;;;;;5089519;28;20473;-65
2021/12/05 17:13:11;;;;;;;17.33;14.25;;;12.20;83.40;;;;;;5087764;28;20032;-63
2021/12/05 17:15:54;;;;;;;15.32;13.80;;;12.10;83.90;;;;;;5087531;28;20029;-66
2021/12/05 17:18:23;;;;;;;19.17;14.10;;;12.10;84.20;;;;;;5080445;28;20073;-67
2021/12/05 17:21:00;;;;;;;17.33;15.52;;;12.20;83.90;;;;;;5077099;28;20038;-66
2021/12/05 17:23:30;;;;;;;15.45;13.88;;;12.20;83.80;;;;;;5077404;28;20024;-66
2021/12/05 17:26:26;;;;;;;16.48;14.80;;;12.20;83.70;;;;;;5073052;28;20044;-66
2021/12/05 17:29:00;;;;;;;15.60;13.20;;;12.20;85.20;;;;;;5063669;28;20028;-68
2021/12/05 17:31:33;;;;;;;15.07;12.63;;;12.20;86.90;;;;;;5078410;28;20082;-65
2021/12/05 17:34:04;;;;;;;15.15;12.95;;;12.40;87.10;;;;;;5076190;28;20028;-66
2021/12/05 17:36:35;;;;;;;17.40;14.40;;;12.50;87.00;;;;;;5075259;28;20492;-70
2021/12/05 17:39:07;;;;;;;42.95;16.35;;;12.50;87.10;;;;;;5081524;28;20028;-67
2021/12/05 17:41:34;;;;;;;20.67;18.17;;;12.60;86.20;;;;;;5085949;28;20095;-70
2021/12/05 17:44:02;;;;;;;19.80;16.42;;;12.60;85.10;;;;;;5078728;28;20477;-66
2021/12/05 17:46:30;;;;;;;20.75;16.65;;;12.60;84.60;;;;;;5084444;28;20048;-63
2021/12/05 17:48:56;;;;;;;16.98;14.52;;;12.40;84.00;;;;;;5084368;28;20028;-65
2021/12/05 17:51:26;;;;;;;16.83;14.98;;;12.40;83.60;;;;;;5077556;28;20537;-63
2021/12/05 17:53:55;;;;;;;17.50;15.38;;;12.40;83.70;;;;;;5082832;28;20017;-64
2021/12/05 17:59:12;;;;;;;17.85;15.27;;;12.40;83.90;;;;;;5078465;28;20032;-63
2021/12/05 18:04:27;;;;;;;15.82;14.23;;;12.40;83.40;;;;;;5086594;28;20059;-70
2021/12/05 18:06:53;;;;;;;15.93;14.27;;;12.40;83.30;;;;;;5076901;28;20073;-70
2021/12/05 18:09:19;;;;;;;16.40;14.65;;;12.40;83.00;;;;;;5092710;28;20031;-67
2021/12/05 18:11:44;;;;;;;17.85;15.10;;;12.40;83.00;;;;;;5077809;28;20029;-68
2021/12/05 18:14:10;;;;;;;20.90;17.95;;;12.40;83.00;;;;;;5080979;28;20024;-67
2021/12/05 18:16:36;;;;;;;19.95;18.05;;;12.40;83.00;;;;;;5076520;28;20021;-64
2021/12/05 18:19:10;;;;;;;15.55;13.90;;;12.40;83.30;;;;;;5071420;28;20013;-61
2021/12/05 18:21:38;;;;;;;14.77;13.27;;;12.40;83.10;;;;;;5087267;28;20089;-69
2021/12/05 18:24:09;;;;;;;14.05;12.65;;;12.40;83.00;;;;;;5086498;28;20485;-63